sensor_id;sensor_type;location;lat;lon;timestamp;pressure;altitude;pressure_sealevel;temperature;humidity
50852;BME280;43953;45.508;-122.806;2022-12-20T00:00:08;101690.31;;;8.01;59.49
50852;BME280;43953;45.508;-122.806;2022-12-20T00:00:43;101687.63;;;8.01;59.41
50852;BME280;43953;45.508;-122.806;2022-12-20T00:01:18;101695.84;;;8.00;59.59
50852;BME280;43953;45.508;-122.806;2022-12-20T00:01:49;101692.34;;;7.99;59.45
50852;BME280;43953;45.508;-122.806;2022-12-20T00:02:21;101681.59;;;7.99;59.45
50852;BME280;43953;45.508;-122.806;2022-12-20T00:04:03;101683.75;;;7.95;59.49
50852;BME280;43953;45.508;-122.806;2022-12-20T00:05:13;101688.28;;;7.95;59.74
50852;BME280;43953;45.508;-122.806;2022-12-20T00:05:45;101690.97;;;7.95;60.04
50852;BME280;43953;45.508;-122.806;2022-12-20T00:06:17;101688.28;;;7.95;59.89
50852;BME280;43953;45.508;-122.806;2022-12-20T00:06:50;101690.00;;;7.96;60.00
50852;BME280;43953;45.508;-122.806;2022-12-20T00:07:21;101684.63;;;7.96;59.97
50852;BME280;43953;45.508;-122.806;2022-12-20T00:07:53;101689.13;;;7.95;59.94
50852;BME280;43953;45.508;-122.806;2022-12-20T00:09:04;101683.75;;;7.95;59.89
50852;BME280;43953;45.508;-122.806;2022-12-20T00:09:36;101681.59;;;7.91;60.27
50852;BME280;43953;45.508;-122.806;2022-12-20T00:10:08;101688.47;;;7.93;59.76
50852;BME280;43953;45.508;-122.806;2022-12-20T00:11:19;101685.47;;;7.96;60.08
50852;BME280;43953;45.508;-122.806;2022-12-20T00:12:31;101682.59;;;7.98;60.11
50852;BME280;43953;45.508;-122.806;2022-12-20T00:13:04;101687.97;;;7.98;60.09
50852;BME280;43953;45.508;-122.806;2022-12-20T00:13:36;101684.44;;;7.97;59.88
50852;BME280;43953;45.508;-122.806;2022-12-20T00:14:49;101681.25;;;7.94;60.00
50852;BME280;43953;45.508;-122.806;2022-12-20T00:15:21;101684.63;;;7.96;60.28
50852;BME280;43953;45.508;-122.806;2022-12-20T00:16:08;101683.94;;;7.94;60.20
50852;BME280;43953;45.508;-122.806;2022-12-20T00:16:41;101679.41;;;7.94;60.23
50852;BME280;43953;45.508;-122.806;2022-12-20T00:17:12;101682.94;;;7.95;60.19
50852;BME280;43953;45.508;-122.806;2022-12-20T00:17:44;101683.75;;;7.95;60.34
50852;BME280;43953;45.508;-122.806;2022-12-20T00:18:16;101682.94;;;7.95;60.46
50852;BME280;43953;45.508;-122.806;2022-12-20T00:18:55;101684.78;;;7.94;60.20
50852;BME280;43953;45.508;-122.806;2022-12-20T00:19:27;101681.25;;;7.94;60.12
50852;BME280;43953;45.508;-122.806;2022-12-20T00:19:58;101683.94;;;7.94;60.22
50852;BME280;43953;45.508;-122.806;2022-12-20T00:20:30;101687.66;;;7.93;60.13
50852;BME280;43953;45.508;-122.806;2022-12-20T00:21:04;101682.28;;;7.93;60.42
50852;BME280;43953;45.508;-122.806;2022-12-20T00:21:36;101689.47;;;7.92;60.45
50852;BME280;43953;45.508;-122.806;2022-12-20T00:22:08;101685.78;;;7.93;60.47
50852;BME280;43953;45.508;-122.806;2022-12-20T00:22:40;101681.25;;;7.94;60.42
50852;BME280;43953;45.508;-122.806;2022-12-20T00:23:11;101688.47;;;7.93;60.64
50852;BME280;43953;45.508;-122.806;2022-12-20T00:23:43;101685.94;;;7.92;60.20
50852;BME280;43953;45.508;-122.806;2022-12-20T00:24:15;101685.78;;;7.93;60.33
50852;BME280;43953;45.508;-122.806;2022-12-20T00:25:24;101686.97;;;7.91;60.16
50852;BME280;43953;45.508;-122.806;2022-12-20T00:26:08;101681.75;;;7.89;60.23
50852;BME280;43953;45.508;-122.806;2022-12-20T00:26:40;101686.13;;;7.90;60.56
50852;BME280;43953;45.508;-122.806;2022-12-20T00:27:12;101677.06;;;7.91;60.65
50852;BME280;43953;45.508;-122.806;2022-12-20T00:27:44;101687.78;;;7.91;60.57
50852;BME280;43953;45.508;-122.806;2022-12-20T00:28:15;101685.13;;;7.91;60.28
50852;BME280;43953;45.508;-122.806;2022-12-20T00:28:47;101683.44;;;7.90;60.48
50852;BME280;43953;45.508;-122.806;2022-12-20T00:29:19;101686.97;;;7.91;60.60
50852;BME280;43953;45.508;-122.806;2022-12-20T00:29:51;101677.41;;;7.88;60.57
50852;BME280;43953;45.508;-122.806;2022-12-20T00:30:22;101676.25;;;7.91;60.80
50852;BME280;43953;45.508;-122.806;2022-12-20T00:30:54;101685.94;;;7.92;60.75
50852;BME280;43953;45.508;-122.806;2022-12-20T00:31:28;101679.94;;;7.90;60.72
50852;BME280;43953;45.508;-122.806;2022-12-20T00:32:00;101675.41;;;7.90;60.56
50852;BME280;43953;45.508;-122.806;2022-12-20T00:32:32;101679.94;;;7.90;60.81
50852;BME280;43953;45.508;-122.806;2022-12-20T00:33:03;101679.94;;;7.90;60.82
50852;BME280;43953;45.508;-122.806;2022-12-20T00:33:37;101685.13;;;7.91;61.05
50852;BME280;43953;45.508;-122.806;2022-12-20T00:34:09;101678.91;;;7.91;60.99
50852;BME280;43953;45.508;-122.806;2022-12-20T00:34:41;101679.75;;;7.91;60.75
50852;BME280;43953;45.508;-122.806;2022-12-20T00:35:12;101686.13;;;7.90;60.66
50852;BME280;43953;45.508;-122.806;2022-12-20T00:35:44;101684.44;;;7.89;60.77
50852;BME280;43953;45.508;-122.806;2022-12-20T00:36:17;101683.59;;;7.89;60.82
50852;BME280;43953;45.508;-122.806;2022-12-20T00:36:49;101681.09;;;7.87;60.92
50852;BME280;43953;45.508;-122.806;2022-12-20T00:37:21;101690.81;;;7.88;60.99
50852;BME280;43953;45.508;-122.806;2022-12-20T00:37:52;101681.09;;;7.87;60.83
50852;BME280;43953;45.508;-122.806;2022-12-20T00:38:25;101686.28;;;7.89;61.02
50852;BME280;43953;45.508;-122.806;2022-12-20T00:38:58;101685.31;;;7.90;61.04
50852;BME280;43953;45.508;-122.806;2022-12-20T00:39:30;101679.94;;;7.90;61.01
50852;BME280;43953;45.508;-122.806;2022-12-20T00:40:38;101678.25;;;7.89;60.95
50852;BME280;43953;45.508;-122.806;2022-12-20T00:41:48;101676.72;;;7.86;61.05
50852;BME280;43953;45.508;-122.806;2022-12-20T00:42:20;101673.22;;;7.86;61.05
50852;BME280;43953;45.508;-122.806;2022-12-20T00:42:52;101670.38;;;7.87;61.15
50852;BME280;43953;45.508;-122.806;2022-12-20T00:43:24;101672.03;;;7.88;61.08
50852;BME280;43953;45.508;-122.806;2022-12-20T00:43:55;101675.56;;;7.89;61.13
50852;BME280;43953;45.508;-122.806;2022-12-20T00:44:27;101664.00;;;7.88;61.54
50852;BME280;43953;45.508;-122.806;2022-12-20T00:44:59;101662.16;;;7.89;61.05
50852;BME280;43953;45.508;-122.806;2022-12-20T00:45:30;101663.16;;;7.88;61.05
50852;BME280;43953;45.508;-122.806;2022-12-20T00:46:02;101666.69;;;7.88;61.17
50852;BME280;43953;45.508;-122.806;2022-12-20T00:46:34;101671.03;;;7.89;61.12
50852;BME280;43953;45.508;-122.806;2022-12-20T00:47:06;101668.53;;;7.88;61.20
50852;BME280;43953;45.508;-122.806;2022-12-20T00:47:38;101671.22;;;7.88;61.20
50852;BME280;43953;45.508;-122.806;2022-12-20T00:48:09;101672.03;;;7.88;61.19
50852;BME280;43953;45.508;-122.806;2022-12-20T00:48:41;101667.03;;;7.85;61.09
50852;BME280;43953;45.508;-122.806;2022-12-20T00:49:13;101679.41;;;7.86;61.35
50852;BME280;43953;45.508;-122.806;2022-12-20T00:49:46;101678.56;;;7.86;61.53
50852;BME280;43953;45.508;-122.806;2022-12-20T00:50:18;101678.56;;;7.86;61.35
50852;BME280;43953;45.508;-122.806;2022-12-20T00:50:50;101680.28;;;7.87;61.31
50852;BME280;43953;45.508;-122.806;2022-12-20T00:51:27;101683.94;;;7.86;61.57
50852;BME280;43953;45.508;-122.806;2022-12-20T00:51:59;101678.56;;;7.86;61.40
50852;BME280;43953;45.508;-122.806;2022-12-20T00:52:30;101677.75;;;7.85;61.40
50852;BME280;43953;45.508;-122.806;2022-12-20T00:53:02;101678.56;;;7.86;61.43
50852;BME280;43953;45.508;-122.806;2022-12-20T00:53:35;101682.97;;;7.87;61.55
50852;BME280;43953;45.508;-122.806;2022-12-20T00:54:07;101682.78;;;7.88;61.59
50852;BME280;43953;45.508;-122.806;2022-12-20T00:54:38;101679.94;;;7.90;61.71
50852;BME280;43953;45.508;-122.806;2022-12-20T00:55:10;101681.59;;;7.91;61.56
50852;BME280;43953;45.508;-122.806;2022-12-20T00:55:43;101675.41;;;7.90;61.54
50852;BME280;43953;45.508;-122.806;2022-12-20T00:56:15;101672.88;;;7.89;61.35
50852;BME280;43953;45.508;-122.806;2022-12-20T00:56:47;101676.56;;;7.88;61.32
50852;BME280;43953;45.508;-122.806;2022-12-20T00:57:19;101668.69;;;7.86;61.39
50852;BME280;43953;45.508;-122.806;2022-12-20T00:57:51;101674.22;;;7.85;61.61
50852;BME280;43953;45.508;-122.806;2022-12-20T00:58:22;101669.69;;;7.85;61.41
50852;BME280;43953;45.508;-122.806;2022-12-20T00:58:56;101673.56;;;7.83;61.50
50852;BME280;43953;45.508;-122.806;2022-12-20T00:59:27;101668.19;;;7.83;61.67
50852;BME280;43953;45.508;-122.806;2022-12-20T00:59:59;101673.41;;;7.84;61.73
50852;BME280;43953;45.508;-122.806;2022-12-20T01:00:31;101669.03;;;7.83;61.70
50852;BME280;43953;45.508;-122.806;2022-12-20T01:01:04;101670.88;;;7.83;61.62
50852;BME280;43953;45.508;-122.806;2022-12-20T01:01:36;101670.88;;;7.83;61.78
50852;BME280;43953;45.508;-122.806;2022-12-20T01:02:08;101675.22;;;7.84;61.63
50852;BME280;43953;45.508;-122.806;2022-12-20T01:02:39;101671.69;;;7.83;61.68
50852;BME280;43953;45.508;-122.806;2022-12-20T01:03:11;101669.19;;;7.82;61.64
50852;BME280;43953;45.508;-122.806;2022-12-20T01:03:43;101662.47;;;7.78;61.56
50852;BME280;43953;45.508;-122.806;2022-12-20T01:04:15;101663.16;;;7.80;61.79
50852;BME280;43953;45.508;-122.806;2022-12-20T01:04:48;101672.22;;;7.79;62.03
50852;BME280;43953;45.508;-122.806;2022-12-20T01:05:20;101651.59;;;7.79;61.75
50852;BME280;43953;45.508;-122.806;2022-12-20T01:05:59;101659.47;;;7.81;61.87
50852;BME280;43953;45.508;-122.806;2022-12-20T01:06:31;101657.47;;;7.83;61.74
50852;BME280;43953;45.508;-122.806;2022-12-20T01:07:03;101658.47;;;7.82;61.97
50852;BME280;43953;45.508;-122.806;2022-12-20T01:07:35;101649.41;;;7.83;61.93
50852;BME280;43953;45.508;-122.806;2022-12-20T01:08:07;101649.41;;;7.83;61.85
50852;BME280;43953;45.508;-122.806;2022-12-20T01:08:39;101658.28;;;7.83;61.86
50852;BME280;43953;45.508;-122.806;2022-12-20T01:09:11;101651.28;;;7.82;62.20
50852;BME280;43953;45.508;-122.806;2022-12-20T01:09:43;101647.06;;;7.80;61.91
50852;BME280;43953;45.508;-122.806;2022-12-20T01:10:15;101648.75;;;7.81;61.92
50852;BME280;43953;45.508;-122.806;2022-12-20T01:11:37;101645.41;;;7.79;62.00
50852;BME280;43953;45.508;-122.806;2022-12-20T01:12:09;101641.91;;;7.78;61.88
50852;BME280;43953;45.508;-122.806;2022-12-20T01:12:41;101637.53;;;7.77;61.97
50852;BME280;43953;45.508;-122.806;2022-12-20T01:13:13;101633.00;;;7.78;61.90
50852;BME280;43953;45.508;-122.806;2022-12-20T01:13:47;101633.84;;;7.78;62.08
50852;BME280;43953;45.508;-122.806;2022-12-20T01:14:19;101634.69;;;7.79;62.10
50852;BME280;43953;45.508;-122.806;2022-12-20T01:14:51;101639.22;;;7.78;62.08
50852;BME280;43953;45.508;-122.806;2022-12-20T01:15:22;101633.66;;;7.80;62.06
50852;BME280;43953;45.508;-122.806;2022-12-20T01:15:54;101636.19;;;7.81;61.96
50852;BME280;43953;45.508;-122.806;2022-12-20T01:16:35;101644.06;;;7.83;61.93
50852;BME280;43953;45.508;-122.806;2022-12-20T01:17:07;101637.69;;;7.84;61.92
50852;BME280;43953;45.508;-122.806;2022-12-20T01:17:39;101635.19;;;7.82;61.94
50852;BME280;43953;45.508;-122.806;2022-12-20T01:18:10;101638.00;;;7.81;61.53
50852;BME280;43953;45.508;-122.806;2022-12-20T01:18:42;101633.84;;;7.78;61.63
50852;BME280;43953;45.508;-122.806;2022-12-20T01:19:17;101632.34;;;7.75;61.73
50852;BME280;43953;45.508;-122.806;2022-12-20T01:19:48;101628.81;;;7.75;61.88
50852;BME280;43953;45.508;-122.806;2022-12-20T01:20:20;101633.66;;;7.71;61.74
50852;BME280;43953;45.508;-122.806;2022-12-20T01:21:00;101630.00;;;7.72;61.90
50852;BME280;43953;45.508;-122.806;2022-12-20T01:21:32;101625.47;;;7.73;61.80
50852;BME280;43953;45.508;-122.806;2022-12-20T01:22:04;101628.97;;;7.73;62.06
50852;BME280;43953;45.508;-122.806;2022-12-20T01:22:36;101624.63;;;7.72;62.09
50852;BME280;43953;45.508;-122.806;2022-12-20T01:23:08;101630.00;;;7.72;61.90
50852;BME280;43953;45.508;-122.806;2022-12-20T01:23:39;101627.31;;;7.72;61.97
50852;BME280;43953;45.508;-122.806;2022-12-20T01:24:15;101623.81;;;7.72;62.12
50852;BME280;43953;45.508;-122.806;2022-12-20T01:24:48;101624.63;;;7.72;62.04
50852;BME280;43953;45.508;-122.806;2022-12-20T01:25:19;101621.97;;;7.72;62.01
50852;BME280;43953;45.508;-122.806;2022-12-20T01:25:51;101619.28;;;7.72;62.03
50852;BME280;43953;45.508;-122.806;2022-12-20T01:26:25;101622.09;;;7.71;62.02
50852;BME280;43953;45.508;-122.806;2022-12-20T01:26:57;101615.91;;;7.70;61.96
50852;BME280;43953;45.508;-122.806;2022-12-20T01:28:27;101615.22;;;7.68;62.24
50852;BME280;43953;45.508;-122.806;2022-12-20T01:28:59;101613.38;;;7.69;62.09
50852;BME280;43953;45.508;-122.806;2022-12-20T01:29:31;101613.22;;;7.70;62.19
50852;BME280;43953;45.508;-122.806;2022-12-20T01:30:03;101610.56;;;7.70;62.21
50852;BME280;43953;45.508;-122.806;2022-12-20T01:30:39;101609.53;;;7.71;62.02
50852;BME280;43953;45.508;-122.806;2022-12-20T01:31:50;101611.22;;;7.72;62.15
50852;BME280;43953;45.508;-122.806;2022-12-20T01:33:04;101606.22;;;7.69;62.13
50852;BME280;43953;45.508;-122.806;2022-12-20T01:33:36;101614.91;;;7.71;62.25
50852;BME280;43953;45.508;-122.806;2022-12-20T01:34:08;101614.91;;;7.71;62.45
50852;BME280;43953;45.508;-122.806;2022-12-20T01:34:40;101613.56;;;7.75;62.40
50852;BME280;43953;45.508;-122.806;2022-12-20T01:35:12;101611.72;;;7.76;62.29
50852;BME280;43953;45.508;-122.806;2022-12-20T01:36:00;101616.06;;;7.77;62.11
50852;BME280;43953;45.508;-122.806;2022-12-20T01:36:35;101615.91;;;7.79;62.40
50852;BME280;43953;45.508;-122.806;2022-12-20T01:37:08;101621.59;;;7.84;62.32
50852;BME280;43953;45.508;-122.806;2022-12-20T01:37:40;101617.94;;;7.85;62.09
50852;BME280;43953;45.508;-122.806;2022-12-20T01:38:12;101614.22;;;7.86;62.40
50852;BME280;43953;45.508;-122.806;2022-12-20T01:38:43;101618.75;;;7.85;62.47
50852;BME280;43953;45.508;-122.806;2022-12-20T01:39:15;101614.41;;;7.84;62.41
50852;BME280;43953;45.508;-122.806;2022-12-20T01:39:47;101606.38;;;7.84;62.41
50852;BME280;43953;45.508;-122.806;2022-12-20T01:40:19;101607.19;;;7.85;62.43
50852;BME280;43953;45.508;-122.806;2022-12-20T01:40:51;101609.03;;;7.84;62.41
50852;BME280;43953;45.508;-122.806;2022-12-20T01:41:23;101604.53;;;7.85;62.33
50852;BME280;43953;45.508;-122.806;2022-12-20T01:41:55;101597.97;;;7.79;62.40
50852;BME280;43953;45.508;-122.806;2022-12-20T01:42:26;101602.50;;;7.79;62.30
50852;BME280;43953;45.508;-122.806;2022-12-20T01:42:58;101603.69;;;7.76;62.38
50852;BME280;43953;45.508;-122.806;2022-12-20T01:43:52;101604.19;;;7.71;62.59
50852;BME280;43953;45.508;-122.806;2022-12-20T01:44:57;101596.47;;;7.68;62.70
50852;BME280;43953;45.508;-122.806;2022-12-20T01:45:29;101593.16;;;7.66;62.70
50852;BME280;43953;45.508;-122.806;2022-12-20T01:46:01;101592.13;;;7.67;62.70
50852;BME280;43953;45.508;-122.806;2022-12-20T01:46:34;101586.75;;;7.67;62.86
50852;BME280;43953;45.508;-122.806;2022-12-20T01:47:18;101586.91;;;7.66;62.71
50852;BME280;43953;45.508;-122.806;2022-12-20T01:47:50;101586.28;;;7.64;62.86
50852;BME280;43953;45.508;-122.806;2022-12-20T01:48:24;101588.78;;;7.65;62.79
50852;BME280;43953;45.508;-122.806;2022-12-20T01:49:41;101582.75;;;7.63;62.87
50852;BME280;43953;45.508;-122.806;2022-12-20T01:50:15;101579.41;;;7.61;62.96
50852;BME280;43953;45.508;-122.806;2022-12-20T01:50:47;101582.22;;;7.60;62.84
50852;BME280;43953;45.508;-122.806;2022-12-20T01:51:21;101588.47;;;7.60;62.67
50852;BME280;43953;45.508;-122.806;2022-12-20T01:52:04;101585.78;;;7.60;62.75
50852;BME280;43953;45.508;-122.806;2022-12-20T01:52:42;101580.41;;;7.60;62.88
50852;BME280;43953;45.508;-122.806;2022-12-20T01:53:18;101583.94;;;7.61;62.67
50852;BME280;43953;45.508;-122.806;2022-12-20T01:53:54;101583.41;;;7.57;62.78
50852;BME280;43953;45.508;-122.806;2022-12-20T01:54:34;101582.41;;;7.58;62.62
50852;BME280;43953;45.508;-122.806;2022-12-20T01:55:23;101578.03;;;7.57;62.75
50852;BME280;43953;45.508;-122.806;2022-12-20T01:56:00;101577.41;;;7.55;62.75
50852;BME280;43953;45.508;-122.806;2022-12-20T01:56:34;101578.22;;;7.56;62.82
50852;BME280;43953;45.508;-122.806;2022-12-20T01:57:16;101570.19;;;7.56;62.77
50852;BME280;43953;45.508;-122.806;2022-12-20T01:58:01;101567.84;;;7.52;62.64
50852;BME280;43953;45.508;-122.806;2022-12-20T01:58:35;101572.03;;;7.55;62.76
50852;BME280;43953;45.508;-122.806;2022-12-20T01:59:10;101569.69;;;7.52;62.66
50852;BME280;43953;45.508;-122.806;2022-12-20T01:59:45;101565.16;;;7.52;62.91
50852;BME280;43953;45.508;-122.806;2022-12-20T02:00:20;101561.66;;;7.52;62.94
50852;BME280;43953;45.508;-122.806;2022-12-20T02:00:52;101566.81;;;7.53;62.87
50852;BME280;43953;45.508;-122.806;2022-12-20T02:01:24;101566.00;;;7.53;63.22
50852;BME280;43953;45.508;-122.806;2022-12-20T02:02:02;101565.16;;;7.52;62.72
50852;BME280;43953;45.508;-122.806;2022-12-20T02:02:35;101564.34;;;7.52;62.83
50852;BME280;43953;45.508;-122.806;2022-12-20T02:03:11;101559.81;;;7.52;62.91
50852;BME280;43953;45.508;-122.806;2022-12-20T02:03:44;101552.59;;;7.53;63.03
50852;BME280;43953;45.508;-122.806;2022-12-20T02:04:17;101547.25;;;7.53;62.93
50852;BME280;43953;45.508;-122.806;2022-12-20T02:04:48;101534.66;;;7.53;63.01
50852;BME280;43953;45.508;-122.806;2022-12-20T02:05:22;101525.66;;;7.55;62.93
50852;BME280;43953;45.508;-122.806;2022-12-20T02:05:54;101523.59;;;7.57;63.00
50852;BME280;43953;45.508;-122.806;2022-12-20T02:06:26;101509.22;;;7.58;62.97
50852;BME280;43953;45.508;-122.806;2022-12-20T02:07:01;101509.03;;;7.59;62.74
50852;BME280;43953;45.508;-122.806;2022-12-20T02:07:35;101500.66;;;7.62;62.76
50852;BME280;43953;45.508;-122.806;2022-12-20T02:08:10;101498.66;;;7.64;62.58
50852;BME280;43953;45.508;-122.806;2022-12-20T02:08:45;101495.63;;;7.67;62.42
50852;BME280;43953;45.508;-122.806;2022-12-20T02:09:18;101489.25;;;7.68;62.37
50852;BME280;43953;45.508;-122.806;2022-12-20T02:09:51;101489.94;;;7.70;62.30
50852;BME280;43953;45.508;-122.806;2022-12-20T02:11:20;101491.44;;;7.73;62.25
50852;BME280;43953;45.508;-122.806;2022-12-20T02:12:26;101502.16;;;7.73;62.23
50852;BME280;43953;45.508;-122.806;2022-12-20T02:13:07;101497.63;;;7.73;62.54
50852;BME280;43953;45.508;-122.806;2022-12-20T02:15:34;101518.72;;;7.77;62.59
50852;BME280;43953;45.508;-122.806;2022-12-20T02:16:14;101519.91;;;7.74;62.56
50852;BME280;43953;45.508;-122.806;2022-12-20T02:18:36;101526.44;;;7.71;62.68
50852;BME280;43953;45.508;-122.806;2022-12-20T02:22:22;101519.59;;;7.61;63.22
50852;BME280;43953;45.508;-122.806;2022-12-20T02:23:33;101509.72;;;7.61;63.31
50852;BME280;43953;45.508;-122.806;2022-12-20T02:30:45;101516.59;;;7.47;63.64
50852;BME280;43953;45.508;-122.806;2022-12-20T02:31:21;101526.13;;;7.50;63.54
50852;BME280;43953;45.508;-122.806;2022-12-20T02:32:38;101524.63;;;7.56;63.46
50852;BME280;43953;45.508;-122.806;2022-12-20T02:33:12;101518.25;;;7.57;63.28
50852;BME280;43953;45.508;-122.806;2022-12-20T02:33:46;101513.91;;;7.56;63.62
50852;BME280;43953;45.508;-122.806;2022-12-20T02:34:21;101520.09;;;7.56;63.08
50852;BME280;43953;45.508;-122.806;2022-12-20T02:34:55;101505.69;;;7.57;63.35
50852;BME280;43953;45.508;-122.806;2022-12-20T02:35:32;101508.56;;;7.56;62.92
50852;BME280;43953;45.508;-122.806;2022-12-20T02:36:04;101514.25;;;7.52;63.16
50852;BME280;43953;45.508;-122.806;2022-12-20T02:36:36;101512.91;;;7.48;63.43
50852;BME280;43953;45.508;-122.806;2022-12-20T02:37:09;101520.09;;;7.48;63.41
50852;BME280;43953;45.508;-122.806;2022-12-20T02:37:50;101524.63;;;7.47;63.63
50852;BME280;43953;45.508;-122.806;2022-12-20T02:38:30;101525.47;;;7.48;63.69
50852;BME280;43953;45.508;-122.806;2022-12-20T02:39:02;101528.81;;;7.50;63.67
50852;BME280;43953;45.508;-122.806;2022-12-20T02:39:38;101535.84;;;7.51;63.62
50852;BME280;43953;45.508;-122.806;2022-12-20T02:40:10;101540.22;;;7.52;63.68
50852;BME280;43953;45.508;-122.806;2022-12-20T02:40:43;101539.19;;;7.53;63.38
50852;BME280;43953;45.508;-122.806;2022-12-20T02:41:57;101540.88;;;7.54;63.44
50852;BME280;43953;45.508;-122.806;2022-12-20T02:42:32;101538.84;;;7.56;63.54
50852;BME280;43953;45.508;-122.806;2022-12-20T02:43:06;101541.53;;;7.56;63.49
50852;BME280;43953;45.508;-122.806;2022-12-20T02:44:04;101548.06;;;7.53;63.64
50852;BME280;43953;45.508;-122.806;2022-12-20T02:45:02;101550.94;;;7.52;63.64
50852;BME280;43953;45.508;-122.806;2022-12-20T02:45:48;101563.66;;;7.50;63.71
50852;BME280;43953;45.508;-122.806;2022-12-20T02:46:20;101561.81;;;7.50;63.81
50852;BME280;43953;45.508;-122.806;2022-12-20T02:46:55;101568.00;;;7.51;63.87
50852;BME280;43953;45.508;-122.806;2022-12-20T02:47:34;101561.81;;;7.50;63.79
50852;BME280;43953;45.508;-122.806;2022-12-20T02:48:10;101575.06;;;7.52;63.59
50852;BME280;43953;45.508;-122.806;2022-12-20T02:48:42;101577.41;;;7.55;63.74
50852;BME280;43953;45.508;-122.806;2022-12-20T02:49:16;101572.69;;;7.57;63.46
50852;BME280;43953;45.508;-122.806;2022-12-20T02:49:50;101570.34;;;7.54;63.43
50852;BME280;43953;45.508;-122.806;2022-12-20T02:50:31;101571.19;;;7.55;63.42
50852;BME280;43953;45.508;-122.806;2022-12-20T02:51:05;101566.81;;;7.53;63.38
50852;BME280;43953;45.508;-122.806;2022-12-20T02:51:40;101566.00;;;7.53;63.45
50852;BME280;43953;45.508;-122.806;2022-12-20T02:52:14;101560.97;;;7.50;63.25
50852;BME280;43953;45.508;-122.806;2022-12-20T02:52:48;101565.50;;;7.49;63.39
50852;BME280;43953;45.508;-122.806;2022-12-20T02:53:21;101557.63;;;7.48;63.55
50852;BME280;43953;45.508;-122.806;2022-12-20T02:53:53;101564.00;;;7.47;63.55
50852;BME280;43953;45.508;-122.806;2022-12-20T02:54:25;101557.94;;;7.45;63.57
50852;BME280;43953;45.508;-122.806;2022-12-20T02:54:59;101561.66;;;7.44;63.66
50852;BME280;43953;45.508;-122.806;2022-12-20T02:55:41;101568.34;;;7.40;63.89
50852;BME280;43953;45.508;-122.806;2022-12-20T02:56:28;101565.69;;;7.40;63.85
50852;BME280;43953;45.508;-122.806;2022-12-20T02:57:53;101569.69;;;7.44;63.72
50852;BME280;43953;45.508;-122.806;2022-12-20T02:59:19;101556.63;;;7.41;63.77
50852;BME280;43953;45.508;-122.806;2022-12-20T03:00:36;101565.69;;;7.40;63.66
50852;BME280;43953;45.508;-122.806;2022-12-20T03:01:16;101558.28;;;7.42;63.81
50852;BME280;43953;45.508;-122.806;2022-12-20T03:01:52;101556.44;;;7.42;63.61
50852;BME280;43953;45.508;-122.806;2022-12-20T03:02:25;101557.47;;;7.41;63.78
50852;BME280;43953;45.508;-122.806;2022-12-20T03:02:58;101549.25;;;7.35;63.57
50852;BME280;43953;45.508;-122.806;2022-12-20T03:03:49;101551.94;;;7.35;63.81
50852;BME280;43953;45.508;-122.806;2022-12-20T03:04:27;101553.94;;;7.33;63.49
50852;BME280;43953;45.508;-122.806;2022-12-20T03:05:01;101553.09;;;7.32;63.88
50852;BME280;43953;45.508;-122.806;2022-12-20T03:05:35;101551.44;;;7.31;63.92
50852;BME280;43953;45.508;-122.806;2022-12-20T03:06:10;101561.31;;;7.31;63.84
50852;BME280;43953;45.508;-122.806;2022-12-20T03:07:03;101555.97;;;7.31;64.25
50852;BME280;43953;45.508;-122.806;2022-12-20T03:07:35;101555.09;;;7.30;63.94
50852;BME280;43953;45.508;-122.806;2022-12-20T03:08:07;101548.56;;;7.33;63.89
50852;BME280;43953;45.508;-122.806;2022-12-20T03:08:38;101550.59;;;7.31;63.99
50852;BME280;43953;45.508;-122.806;2022-12-20T03:09:10;101550.59;;;7.31;63.83
50852;BME280;43953;45.508;-122.806;2022-12-20T03:09:44;101540.72;;;7.31;64.06
50852;BME280;43953;45.508;-122.806;2022-12-20T03:10:16;101543.56;;;7.29;63.76
50852;BME280;43953;45.508;-122.806;2022-12-20T03:10:49;101545.25;;;7.31;63.93
50852;BME280;43953;45.508;-122.806;2022-12-20T03:11:21;101546.22;;;7.29;63.71
50852;BME280;43953;45.508;-122.806;2022-12-20T03:11:53;101541.06;;;7.28;63.97
50852;BME280;43953;45.508;-122.806;2022-12-20T03:12:25;101541.06;;;7.28;63.70
50852;BME280;43953;45.508;-122.806;2022-12-20T03:12:57;101539.38;;;7.27;63.93
50852;BME280;43953;45.508;-122.806;2022-12-20T03:13:29;101537.53;;;7.27;63.95
50852;BME280;43953;45.508;-122.806;2022-12-20T03:14:00;101541.06;;;7.28;63.72
50852;BME280;43953;45.508;-122.806;2022-12-20T03:14:32;101541.06;;;7.28;63.69
50852;BME280;43953;45.508;-122.806;2022-12-20T03:15:04;101542.03;;;7.27;64.00
50852;BME280;43953;45.508;-122.806;2022-12-20T03:15:36;101537.69;;;7.26;63.93
50852;BME280;43953;45.508;-122.806;2022-12-20T03:16:08;101537.53;;;7.27;63.85
50852;BME280;43953;45.508;-122.806;2022-12-20T03:16:41;101540.19;;;7.27;63.77
50852;BME280;43953;45.508;-122.806;2022-12-20T03:17:12;101541.91;;;7.28;63.88
50852;BME280;43953;45.508;-122.806;2022-12-20T03:17:44;101542.72;;;7.29;63.81
50852;BME280;43953;45.508;-122.806;2022-12-20T03:18:16;101545.25;;;7.31;63.74
50852;BME280;43953;45.508;-122.806;2022-12-20T03:18:48;101545.91;;;7.33;63.73
50852;BME280;43953;45.508;-122.806;2022-12-20T03:19:20;101551.09;;;7.34;63.73
50852;BME280;43953;45.508;-122.806;2022-12-20T03:19:51;101542.25;;;7.34;63.66
50852;BME280;43953;45.508;-122.806;2022-12-20T03:20:24;101547.06;;;7.30;63.56
50852;BME280;43953;45.508;-122.806;2022-12-20T03:20:55;101545.25;;;7.31;64.02
50852;BME280;43953;45.508;-122.806;2022-12-20T03:21:27;101537.38;;;7.29;63.67
50852;BME280;43953;45.508;-122.806;2022-12-20T03:21:59;101533.84;;;7.28;63.77